createdAt,value
2023-01-17T00:04:10.284Z,3.36
2023-01-17T00:10:23.741Z,4.39
2023-01-17T00:16:26.215Z,4.48
2023-01-17T00:22:49.741Z,4.55
2023-01-17T00:28:52.255Z,4.39
2023-01-17T00:34:54.731Z,4.35
2023-01-17T00:41:06.215Z,4.44
2023-01-17T00:47:26.888Z,4.30
2023-01-17T00:53:47.057Z,4.20
2023-01-17T01:00:07.350Z,4.07
2023-01-17T01:06:28.357Z,3.76
2023-01-17T01:12:51.874Z,3.83
2023-01-17T01:19:12.545Z,3.89
2023-01-17T01:25:33.048Z,3.43
2023-01-17T01:31:55.521Z,3.68
2023-01-17T01:38:02.514Z,3.64
2023-01-17T01:44:57.830Z,3.50
2023-01-17T01:51:05.169Z,3.14
2023-01-17T01:57:14.632Z,3.29
2023-01-17T02:03:38.408Z,3.32
2023-01-17T02:09:45.647Z,2.94
2023-01-17T02:16:01.237Z,3.17
2023-01-17T02:22:13.671Z,3.34
2023-01-17T02:28:27.179Z,3.16
2023-01-17T02:34:56.768Z,3.05
2023-01-17T02:41:09.477Z,2.50
2023-01-17T02:47:32.234Z,2.71
2023-01-17T02:53:55.364Z,2.72
2023-01-17T03:00:04.847Z,2.85
2023-01-17T03:06:15.302Z,2.61
2023-01-17T03:12:17.790Z,2.65
2023-01-17T03:18:23.933Z,3.04
2023-01-17T03:24:33.651Z,2.52
2023-01-17T03:30:36.227Z,2.74
2023-01-17T03:36:40.592Z,2.87
2023-01-17T03:42:52.162Z,2.17
2023-01-17T03:48:56.648Z,2.36
2023-01-17T03:55:03.153Z,2.37
2023-01-17T04:01:05.665Z,2.35
2023-01-17T04:07:11.026Z,1.78
2023-01-17T04:13:14.500Z,1.40
2023-01-17T04:19:16.953Z,1.67
2023-01-17T04:25:19.434Z,1.54
2023-01-17T04:31:27.888Z,1.30
2023-01-17T04:37:30.354Z,1.79
2023-01-17T04:43:32.814Z,1.84
2023-01-17T04:49:35.265Z,1.49
2023-01-17T04:55:37.716Z,2.03
2023-01-17T05:01:43.253Z,2.11
2023-01-17T05:07:45.683Z,1.84
2023-01-17T05:13:49.141Z,1.14
2023-01-17T05:19:52.591Z,1.55
2023-01-17T05:25:56.634Z,0.85
2023-01-17T05:32:01.507Z,1.59
2023-01-17T05:38:03.949Z,1.35
2023-01-17T05:44:08.344Z,1.72
2023-01-17T05:50:12.585Z,1.67
2023-01-17T05:56:14.637Z,2.01
2023-01-17T06:02:16.344Z,1.37
2023-01-17T06:08:21.300Z,1.72
2023-01-17T06:14:23.831Z,1.86
2023-01-17T06:20:26.307Z,1.99
2023-01-17T06:26:28.766Z,1.87
2023-01-17T06:32:31.303Z,2.07
2023-01-17T06:38:35.879Z,2.08
2023-01-17T06:44:38.196Z,2.84
2023-01-17T06:50:40.733Z,2.44
2023-01-17T06:56:47.175Z,2.21
2023-01-17T07:02:50.636Z,2.52
2023-01-17T07:08:52.925Z,2.09
2023-01-17T07:14:54.668Z,2.21
2023-01-17T07:20:56.353Z,2.71
2023-01-17T07:26:58.494Z,2.92
2023-01-17T07:33:01.964Z,2.31
2023-01-17T07:39:06.370Z,3.19
2023-01-17T07:45:10.870Z,3.44
2023-01-17T07:51:15.349Z,3.69
2023-01-17T07:57:17.811Z,3.64
2023-01-17T08:03:20.311Z,3.98
2023-01-17T08:09:22.771Z,4.03
2023-01-17T08:15:28.229Z,3.95
2023-01-17T08:21:33.738Z,3.91
2023-01-17T08:27:36.304Z,4.14
2023-01-17T08:33:38.661Z,4.25
2023-01-17T08:39:41.153Z,4.39
2023-01-17T08:45:48.740Z,4.61
2023-01-17T08:51:56.154Z,4.73
2023-01-17T08:57:58.012Z,5.07
2023-01-17T09:04:00.089Z,5.40
2023-01-17T09:10:02.516Z,5.58
2023-01-17T09:16:05.976Z,5.52
2023-01-17T09:22:08.453Z,6.04
2023-01-17T09:28:18.458Z,5.84
2023-01-17T09:34:28.262Z,6.34
2023-01-17T09:40:30.859Z,6.41
2023-01-17T09:46:39.326Z,6.68
2023-01-17T09:52:41.756Z,6.05
2023-01-17T09:59:00.285Z,7.05
2023-01-17T10:05:36.904Z,7.44
2023-01-17T10:12:06.277Z,7.59
2023-01-17T10:18:44.035Z,8.02
2023-01-17T10:24:55.048Z,8.05
2023-01-17T10:31:13.138Z,8.87
2023-01-17T10:37:38.171Z,8.30
2023-01-17T10:43:53.091Z,9.52
2023-01-17T10:50:04.428Z,9.72
2023-01-17T10:56:10.220Z,10.14
2023-01-17T11:02:20.598Z,9.77
2023-01-17T11:08:23.075Z,9.55
2023-01-17T11:14:27.506Z,9.40
2023-01-17T11:20:44.026Z,9.49
2023-01-17T11:26:50.509Z,9.67
2023-01-17T11:32:56.402Z,9.91
2023-01-17T11:39:06.468Z,10.02
2023-01-17T11:45:32.017Z,9.66
2023-01-17T11:51:42.519Z,9.69
2023-01-17T11:57:51.052Z,9.42
2023-01-17T12:03:59.360Z,9.88
2023-01-17T12:10:25.034Z,10.03
2023-01-17T12:16:45.617Z,10.01
2023-01-17T12:23:16.163Z,9.95
2023-01-17T12:29:37.709Z,9.95
2023-01-17T12:35:52.185Z,9.50
2023-01-17T12:42:30.795Z,9.79
2023-01-17T12:48:38.250Z,9.84
2023-01-17T12:54:45.755Z,10.10
2023-01-17T13:00:57.345Z,10.14
2023-01-17T13:07:26.221Z,10.36
2023-01-17T13:13:33.371Z,10.23
2023-01-17T13:19:54.887Z,10.27
2023-01-17T13:26:00.415Z,10.27
2023-01-17T13:32:34.107Z,10.55
2023-01-17T13:39:30.706Z,10.42
2023-01-17T13:45:38.236Z,10.89
2023-01-17T13:52:06.926Z,10.64
2023-01-17T13:58:29.284Z,10.73
2023-01-17T14:05:11.604Z,10.25
2023-01-17T14:11:18.531Z,10.16
2023-01-17T14:17:23.865Z,10.45
2023-01-17T14:23:40.357Z,10.23
2023-01-17T14:29:48.497Z,10.19
2023-01-17T14:36:01.119Z,9.88
2023-01-17T14:42:03.833Z,9.59
2023-01-17T14:48:22.457Z,9.03
2023-01-17T14:54:27.841Z,8.59
2023-01-17T15:00:39.414Z,8.82
2023-01-17T15:06:46.334Z,8.35
2023-01-17T15:12:53.280Z,7.35
2023-01-17T15:19:00.761Z,6.94
2023-01-17T15:25:04.253Z,7.34
2023-01-17T15:31:16.905Z,7.62
2023-01-17T15:37:34.990Z,6.28
2023-01-17T15:43:38.717Z,6.06
2023-01-17T15:49:53.782Z,5.80
2023-01-17T15:55:56.661Z,6.50
2023-01-17T16:02:00.234Z,6.98
2023-01-17T16:08:02.588Z,7.11
2023-01-17T16:14:08.056Z,7.03
2023-01-17T16:20:21.492Z,6.82
2023-01-17T16:26:27.950Z,7.02
2023-01-17T16:32:30.526Z,6.50
2023-01-17T16:38:33.968Z,7.07
2023-01-17T16:44:38.462Z,6.36
2023-01-17T16:50:48.968Z,6.27
2023-01-17T16:56:51.415Z,5.90
2023-01-17T17:02:53.965Z,5.54
2023-01-17T17:08:57.354Z,5.69
2023-01-17T17:14:59.795Z,6.15
2023-01-17T17:21:02.412Z,5.15
2023-01-17T17:27:04.703Z,6.05
2023-01-17T17:33:07.175Z,6.32
2023-01-17T17:39:13.738Z,5.66
2023-01-17T17:45:16.138Z,5.54
2023-01-17T17:51:42.672Z,5.87
2023-01-17T17:57:47.162Z,6.01
2023-01-17T18:03:49.628Z,5.21
2023-01-17T18:09:52.100Z,5.11
2023-01-17T18:16:12.682Z,5.02
2023-01-17T18:22:15.113Z,5.32
2023-01-17T18:28:17.585Z,5.61
2023-01-17T18:34:28.093Z,5.32
2023-01-17T18:40:30.549Z,5.25
2023-01-17T18:46:34.040Z,5.14
2023-01-17T18:52:37.185Z,5.11
2023-01-17T18:58:44.982Z,5.04
2023-01-17T19:04:49.023Z,4.71
2023-01-17T19:10:51.933Z,4.74
2023-01-17T19:16:54.386Z,3.75
2023-01-17T19:22:58.778Z,4.56
2023-01-17T19:29:01.284Z,4.24
2023-01-17T19:35:04.163Z,4.22
2023-01-17T19:41:15.053Z,3.59
2023-01-17T19:47:17.751Z,3.91
2023-01-17T19:53:20.219Z,4.51
2023-01-17T19:59:23.748Z,4.47
2023-01-17T20:05:26.154Z,4.70
2023-01-17T20:11:29.613Z,4.24
2023-01-17T20:17:33.868Z,4.39
2023-01-17T20:23:39.518Z,4.51
2023-01-17T20:29:42.011Z,4.43
2023-01-17T20:35:44.462Z,4.51
2023-01-17T20:41:51.910Z,4.86
2023-01-17T20:47:55.769Z,4.85
2023-01-17T20:54:01.879Z,4.78
2023-01-17T21:00:05.321Z,5.29
2023-01-17T21:06:10.838Z,5.34
2023-01-17T21:12:15.322Z,5.14
2023-01-17T21:18:19.826Z,4.67
2023-01-17T21:24:22.624Z,5.24
2023-01-17T21:30:24.710Z,5.44
2023-01-17T21:36:30.153Z,6.20
2023-01-17T21:42:32.607Z,6.13
2023-01-17T21:48:34.478Z,6.32
2023-01-17T21:54:54.721Z,6.09
2023-01-17T22:01:08.162Z,5.53
2023-01-17T22:07:09.942Z,5.16
2023-01-17T22:13:17.060Z,6.02
2023-01-17T22:19:23.528Z,5.86
2023-01-17T22:25:26.015Z,5.61
2023-01-17T22:31:29.448Z,5.86
2023-01-17T22:37:31.901Z,5.87
2023-01-17T22:43:39.393Z,5.88
2023-01-17T22:49:41.835Z,5.45
2023-01-17T22:55:44.293Z,5.55
2023-01-17T23:01:46.744Z,5.56
2023-01-17T23:07:51.196Z,5.54
2023-01-17T23:13:53.670Z,5.63
2023-01-17T23:19:56.153Z,5.75
2023-01-17T23:26:03.535Z,5.90
2023-01-17T23:32:05.945Z,6.04
2023-01-17T23:38:26.267Z,6.85
2023-01-17T23:44:32.046Z,6.96
2023-01-17T23:50:33.898Z,6.60
2023-01-17T23:56:35.880Z,7.59
